createdAt,value
2016-07-23T00:00:58.306Z,25.75
2016-07-23T00:01:57.630Z,25.47
2016-07-23T00:02:57.597Z,25.1
2016-07-23T00:03:57.602Z,25
2016-07-23T00:04:58.452Z,24.73
2016-07-23T00:05:58.408Z,24.77
2016-07-23T00:06:56.904Z,24.68
2016-07-23T00:07:57.700Z,25
2016-07-23T00:08:57.615Z,25.17
2016-07-23T00:09:57.695Z,25.23
2016-07-23T00:10:57.661Z,25.32
2016-07-23T00:11:57.639Z,25.54
2016-07-23T00:12:57.726Z,25.7
2016-07-23T00:13:58.390Z,25.23
2016-07-23T00:14:58.370Z,25.58
2016-07-23T00:15:56.931Z,25.42
2016-07-23T00:16:57.817Z,25.1
2016-07-23T00:17:57.667Z,24.55
2016-07-23T00:18:58.396Z,24.98
2016-07-23T00:19:58.464Z,25.35
2016-07-23T00:20:57.713Z,25.15
2016-07-23T00:21:57.829Z,25.2
2016-07-23T00:22:58.368Z,25.28
2016-07-23T00:23:57.665Z,24.77
2016-07-23T00:24:58.374Z,24.99
2016-07-23T00:25:57.810Z,25.52
2016-07-23T00:26:58.397Z,25.5
2016-07-23T00:27:58.583Z,25.61
2016-07-23T00:28:58.457Z,25.33
2016-07-23T00:29:56.978Z,25.76
2016-07-23T00:30:58.490Z,25.55
2016-07-23T00:31:57.696Z,25.79
2016-07-23T00:32:57.698Z,25.06
2016-07-23T00:33:57.707Z,24.95
2016-07-23T00:34:57.079Z,24.73
2016-07-23T00:35:58.412Z,24.35
2016-07-23T00:36:57.884Z,24.45
2016-07-23T00:37:57.708Z,24.47
2016-07-23T00:38:57.752Z,24.9
2016-07-23T00:39:58.423Z,25.2
2016-07-23T00:40:58.532Z,25.6
2016-07-23T00:41:58.454Z,25.77
2016-07-23T00:42:58.511Z,25.72
2016-07-23T00:43:58.443Z,25.51
2016-07-23T00:44:57.170Z,25.28
2016-07-23T00:45:57.844Z,25.02
2016-07-23T00:46:58.479Z,25.47
2016-07-23T00:47:58.514Z,25.82
2016-07-23T00:48:57.053Z,26.33
2016-07-23T00:49:57.842Z,26.66
2016-07-23T00:50:57.756Z,26.87
2016-07-23T00:51:58.577Z,27.02
2016-07-23T00:52:57.924Z,26.99
2016-07-23T00:53:57.921Z,27.14
2016-07-23T00:54:57.930Z,27.1
2016-07-23T00:55:58.557Z,27.22
2016-07-23T00:56:57.891Z,27.27
2016-07-23T00:57:57.899Z,27.32
2016-07-23T00:58:57.803Z,27.44
2016-07-23T00:59:58.012Z,27.39
2016-07-23T01:00:58.522Z,27.43
2016-07-23T01:01:57.887Z,27.51
2016-07-23T01:02:58.557Z,27.4
2016-07-23T01:03:58.547Z,27.46
2016-07-23T01:04:57.842Z,27.4
2016-07-23T01:05:57.852Z,27.49
2016-07-23T01:06:57.153Z,27.5
2016-07-23T01:07:57.866Z,27.54
2016-07-23T01:08:57.171Z,27.51
2016-07-23T01:09:57.883Z,27.6
2016-07-23T01:10:58.595Z,27.57
2016-07-23T01:11:57.897Z,27.65
2016-07-23T01:12:58.613Z,27.62
2016-07-23T01:13:57.918Z,27.51
2016-07-23T01:14:57.213Z,27.63
2016-07-23T01:15:57.928Z,27.57
2016-07-23T01:16:57.232Z,27.62
2016-07-23T01:17:58.650Z,27.66
2016-07-23T01:18:58.660Z,27.63
2016-07-23T01:19:58.675Z,27.65
2016-07-23T01:20:57.967Z,27.72
2016-07-23T01:21:57.976Z,27.66
2016-07-23T01:22:58.689Z,27.67
2016-07-23T01:23:58.009Z,27.7
2016-07-23T01:24:58.000Z,27.69
2016-07-23T01:25:58.007Z,27.7
2016-07-23T01:26:58.016Z,27.67
2016-07-23T01:27:57.316Z,27.66
2016-07-23T01:28:58.032Z,27.72
2016-07-23T01:29:58.743Z,27.69
2016-07-23T01:30:58.050Z,27.67
2016-07-23T01:31:58.053Z,27.65
2016-07-23T01:32:58.784Z,27.7
2016-07-23T01:33:58.780Z,27.74
2016-07-23T01:34:58.836Z,27.69
2016-07-23T01:35:58.792Z,27.67
2016-07-23T01:36:58.094Z,27.67
2016-07-23T01:37:58.106Z,27.74
2016-07-23T01:38:57.408Z,27.66
2016-07-23T01:39:58.118Z,27.82
2016-07-23T01:40:58.125Z,27.78
2016-07-23T01:41:58.141Z,27.74
2016-07-23T01:42:58.143Z,27.79
2016-07-23T01:43:58.151Z,27.82
2016-07-23T01:44:58.867Z,27.82
2016-07-23T01:45:58.250Z,27.78
2016-07-23T01:46:58.889Z,27.79
2016-07-23T01:47:57.524Z,27.78
2016-07-23T01:48:59.006Z,27.81
2016-07-23T01:49:59.029Z,27.78
2016-07-23T01:50:58.207Z,27.9
2016-07-23T01:51:57.586Z,27.79
2016-07-23T01:52:59.061Z,27.78
2016-07-23T01:53:57.531Z,27.85
2016-07-23T01:54:57.527Z,27.82
2016-07-23T01:55:58.267Z,27.82
2016-07-23T01:56:58.255Z,27.9
2016-07-23T01:57:59.047Z,27.82
2016-07-23T01:58:58.346Z,27.81
2016-07-23T01:59:58.276Z,27.85
2016-07-23T02:00:58.287Z,27.87
2016-07-23T02:01:59.014Z,27.81
2016-07-23T02:02:58.300Z,27.85
2016-07-23T02:03:58.310Z,27.84
2016-07-23T02:04:58.316Z,27.85
2016-07-23T02:05:58.329Z,27.84
2016-07-23T02:06:58.336Z,27.81
2016-07-23T02:07:59.061Z,27.82
2016-07-23T02:08:58.352Z,27.87
2016-07-23T02:09:58.358Z,27.88
2016-07-23T02:10:58.366Z,27.82
2016-07-23T02:11:58.378Z,27.9
2016-07-23T02:12:59.087Z,27.92
2016-07-23T02:13:58.393Z,27.93
2016-07-23T02:14:57.697Z,27.92
2016-07-23T02:15:59.112Z,27.85
2016-07-23T02:16:58.415Z,27.85
2016-07-23T02:17:59.130Z,27.82
2016-07-23T02:18:58.445Z,27.96
2016-07-23T02:19:58.437Z,27.9
2016-07-23T02:20:59.156Z,27.92
2016-07-23T02:21:58.458Z,27.88
2016-07-23T02:22:58.475Z,27.87
2016-07-23T02:23:57.769Z,27.85
2016-07-23T02:24:58.478Z,27.93
2016-07-23T02:25:58.488Z,27.97
2016-07-23T02:26:59.211Z,27.94
2016-07-23T02:27:59.208Z,27.94
2016-07-23T02:28:58.511Z,27.94
2016-07-23T02:29:57.811Z,27.88
2016-07-23T02:30:57.821Z,27.97
2016-07-23T02:31:59.241Z,27.93
2016-07-23T02:32:59.254Z,27.99
2016-07-23T02:33:59.261Z,27.99
2016-07-23T02:34:58.559Z,28
2016-07-23T02:35:59.275Z,27.96
2016-07-23T02:36:58.683Z,27.94
2016-07-23T02:38:12.753Z,27.87
2016-07-23T02:38:58.589Z,27.88
2016-07-23T02:39:58.598Z,28
2016-07-23T02:40:58.616Z,27.92
2016-07-23T02:41:58.625Z,28.06
2016-07-23T02:42:58.623Z,28.02
2016-07-23T02:43:58.631Z,28.02
2016-07-23T02:44:58.640Z,28.03
2016-07-23T02:45:58.646Z,27.93
2016-07-23T02:46:59.868Z,27.96
2016-07-23T02:47:59.368Z,27.99
2016-07-23T02:48:58.671Z,28
2016-07-23T02:49:58.682Z,27.9
2016-07-23T02:50:57.977Z,27.97
2016-07-23T02:51:58.699Z,27.97
2016-07-23T02:52:58.702Z,27.97
2016-07-23T02:53:59.415Z,28.02
2016-07-23T02:54:59.423Z,27.93
2016-07-23T02:55:58.776Z,28
2016-07-23T02:56:58.024Z,28.03
2016-07-23T02:58:00.548Z,27.97
2016-07-23T02:58:59.455Z,28.04
2016-07-23T02:59:59.462Z,28.02
2016-07-23T03:00:58.766Z,28.03
2016-07-23T03:01:58.774Z,28.02
2016-07-23T03:02:59.485Z,27.88
2016-07-23T03:03:58.794Z,27.99
2016-07-23T03:04:58.088Z,28.04
2016-07-23T03:05:58.098Z,28.02
2016-07-23T03:06:58.812Z,27.97
2016-07-23T03:07:58.820Z,27.97
2016-07-23T03:08:59.253Z,28
2016-07-23T03:09:59.543Z,28.02
2016-07-23T03:10:58.140Z,27.96
2016-07-23T03:11:59.560Z,27.94
2016-07-23T03:12:59.567Z,28.04
2016-07-23T03:13:59.576Z,28.04
2016-07-23T03:14:58.877Z,27.99
2016-07-23T03:15:58.178Z,27.96
2016-07-23T03:16:58.893Z,28
2016-07-23T03:17:59.955Z,27.96
2016-07-23T03:18:58.201Z,27.94
2016-07-23T03:19:59.623Z,28.04
2016-07-23T03:20:58.217Z,28.03
2016-07-23T03:21:58.933Z,27.96
2016-07-23T03:22:58.943Z,27.97
2016-07-23T03:23:59.657Z,28
2016-07-23T03:24:58.958Z,27.97
2016-07-23T03:25:58.259Z,28.06
2016-07-23T03:26:59.679Z,28.03
2016-07-23T03:27:58.980Z,28.02
2016-07-23T03:28:59.592Z,27.99
2016-07-23T03:29:59.703Z,28.02
2016-07-23T03:30:59.151Z,28.02
2016-07-23T03:31:59.719Z,28.02
2016-07-23T03:32:59.730Z,28.09
2016-07-23T03:33:59.028Z,28
2016-07-23T03:34:59.742Z,27.97
2016-07-23T03:35:59.803Z,28.06
2016-07-23T03:36:59.059Z,28
2016-07-23T03:37:59.766Z,28.02
2016-07-23T03:38:59.772Z,28.06
2016-07-23T03:40:00.487Z,28.04
2016-07-23T03:40:59.793Z,28.09
2016-07-23T03:41:59.848Z,28.07
2016-07-23T03:42:59.098Z,28.09
2016-07-23T03:43:59.820Z,27.99
2016-07-23T03:44:58.408Z,27.99
2016-07-23T03:45:59.831Z,28.07
2016-07-23T03:46:58.425Z,28.09
2016-07-23T03:47:59.142Z,28.06
2016-07-23T03:48:59.855Z,28.02
2016-07-23T03:49:59.861Z,27.97
2016-07-23T03:50:59.522Z,28.07
2016-07-23T03:51:59.175Z,28.07
2016-07-23T03:52:58.474Z,28
2016-07-23T03:53:59.188Z,28.11
2016-07-23T03:54:59.905Z,28.03
2016-07-23T03:55:58.496Z,28.09
2016-07-23T03:56:59.924Z,28.09
2016-07-23T03:57:59.932Z,28.02
2016-07-23T03:58:59.225Z,28.04
2016-07-23T03:59:59.236Z,28.11
2016-07-23T04:00:59.953Z,28.03
2016-07-23T04:01:59.250Z,28
2016-07-23T04:02:59.266Z,28.04
2016-07-23T04:04:00.645Z,28.02
2016-07-23T04:04:58.568Z,28.03
2016-07-23T04:05:58.575Z,28.07
2016-07-23T04:06:59.999Z,28.02
2016-07-23T04:07:58.595Z,28.11
2016-07-23T04:08:58.605Z,28.02
2016-07-23T04:09:59.316Z,28.02
2016-07-23T04:11:00.034Z,28.03
2016-07-23T04:11:59.333Z,28.04
2016-07-23T04:12:59.341Z,28.02
2016-07-23T04:13:59.350Z,28.02
2016-07-23T04:15:00.456Z,28.02
2016-07-23T04:15:59.366Z,28.06
2016-07-23T04:16:59.372Z,27.99
2016-07-23T04:18:00.089Z,28.09
2016-07-23T04:18:59.391Z,28.22
2016-07-23T04:19:59.399Z,28.04
2016-07-23T04:20:59.404Z,28.06
2016-07-23T04:21:58.707Z,28.03
2016-07-23T04:22:59.421Z,28.12
2016-07-23T04:23:58.724Z,28.11
2016-07-23T04:24:59.434Z,28.09
2016-07-23T04:25:59.942Z,28.12
2016-07-23T04:26:58.748Z,28.04
2016-07-23T04:27:59.461Z,28.11
2016-07-23T04:28:59.471Z,28.06
2016-07-23T04:29:59.472Z,28.06
2016-07-23T04:30:59.484Z,28.12
2016-07-23T04:31:59.491Z,28.12
2016-07-23T04:33:00.208Z,28.07
2016-07-23T04:33:58.802Z,28.07
2016-07-23T04:35:00.065Z,28.11
2016-07-23T04:36:00.230Z,28.07
2016-07-23T04:36:59.582Z,28.04
2016-07-23T04:37:59.537Z,28.11
2016-07-23T04:38:59.549Z,28.02
2016-07-23T04:39:59.605Z,28.14
2016-07-23T04:40:58.854Z,28.14
2016-07-23T04:41:59.722Z,28.11
2016-07-23T04:42:59.630Z,28.11
2016-07-23T04:44:00.302Z,28.14
2016-07-23T04:44:59.598Z,28.07
2016-07-23T04:46:00.369Z,28.03
2016-07-23T04:46:59.612Z,28.11
2016-07-23T04:48:01.270Z,28.04
2016-07-23T04:48:58.918Z,28.09
2016-07-23T04:49:59.636Z,28.12
2016-07-23T04:51:00.354Z,28.11
2016-07-23T04:51:59.648Z,28.17
2016-07-23T04:52:59.659Z,28.07
2016-07-23T04:54:00.378Z,28.04
2016-07-23T04:54:59.674Z,28.07
2016-07-23T04:55:58.973Z,28.12
2016-07-23T04:57:00.396Z,28.09
2016-07-23T04:58:00.411Z,28.07
2016-07-23T04:58:59.703Z,28.09
2016-07-23T04:59:59.715Z,28.07
2016-07-23T05:01:00.638Z,28.12
2016-07-23T05:01:59.728Z,28.18
2016-07-23T05:02:59.736Z,28.09
2016-07-23T05:03:59.036Z,28.14
2016-07-23T05:05:00.463Z,28.09
2016-07-23T05:06:00.473Z,28.12
2016-07-23T05:07:00.472Z,28.04
2016-07-23T05:07:59.773Z,28.11
2016-07-23T05:08:59.073Z,28.15
2016-07-23T05:10:00.792Z,28.09
2016-07-23T05:10:59.799Z,28.14
2016-07-23T05:12:00.403Z,28.11
2016-07-23T05:12:59.110Z,28.11
2016-07-23T05:13:59.823Z,27.99
2016-07-23T05:14:59.844Z,28.07
2016-07-23T05:15:59.131Z,28.12
2016-07-23T05:16:59.851Z,28.11
2016-07-23T05:17:59.856Z,28.06
2016-07-23T05:18:59.970Z,28.06
2016-07-23T05:19:59.869Z,28.12
2016-07-23T05:21:01.153Z,28.11
2016-07-23T05:22:00.595Z,28.12
2016-07-23T05:23:00.038Z,28.12
2016-07-23T05:23:59.198Z,28.09
2016-07-23T05:25:00.617Z,28.07
2016-07-23T05:25:59.210Z,28.15
2016-07-23T05:26:59.926Z,28.17
2016-07-23T05:27:59.935Z,28.12
2016-07-23T05:28:59.246Z,28.17
2016-07-23T05:29:59.953Z,28.24
2016-07-23T05:31:00.672Z,28.19
2016-07-23T05:32:00.922Z,28.22
2016-07-23T05:32:59.973Z,28.17
2016-07-23T05:33:59.986Z,28.14
2016-07-23T05:34:59.993Z,28.22
2016-07-23T05:36:00.705Z,28.18
2016-07-23T05:37:00.714Z,28.07
2016-07-23T05:38:00.721Z,28.15
2016-07-23T05:38:59.316Z,28.15
2016-07-23T05:40:00.036Z,28.15
2016-07-23T05:41:01.090Z,28.22
2016-07-23T05:42:00.757Z,28.22
2016-07-23T05:43:00.762Z,28.22
2016-07-23T05:44:00.062Z,28.12
2016-07-23T05:45:00.274Z,28.19
2016-07-23T05:46:00.841Z,28.15
2016-07-23T05:47:00.793Z,28.24
2016-07-23T05:48:00.804Z,28.18
2016-07-23T05:49:00.116Z,28.25
2016-07-23T05:49:59.403Z,28.19
2016-07-23T05:51:00.119Z,28.17
2016-07-23T05:52:00.217Z,28.25
2016-07-23T05:53:00.841Z,28.18
2016-07-23T05:54:00.860Z,28.15
2016-07-23T05:55:00.857Z,28.18
2016-07-23T05:56:00.159Z,28.19
2016-07-23T05:57:00.875Z,28.22
2016-07-23T05:58:00.173Z,28.19
2016-07-23T05:59:00.889Z,28.3
2016-07-23T06:00:00.188Z,28.19
2016-07-23T06:00:59.494Z,28.19
2016-07-23T06:01:59.498Z,28.19
2016-07-23T06:03:00.910Z,28.18
2016-07-23T06:04:00.926Z,28.19
2016-07-23T06:05:00.229Z,28.19
2016-07-23T06:06:00.942Z,28.24
2016-07-23T06:07:00.255Z,28.27
2016-07-23T06:08:00.957Z,28.3
2016-07-23T06:09:00.964Z,28.21
2016-07-23T06:10:00.268Z,28.19
2016-07-23T06:11:00.279Z,28.21
2016-07-23T06:11:59.575Z,28.3
2016-07-23T06:13:00.290Z,28.3
2016-07-23T06:13:59.994Z,28.29
2016-07-23T06:15:00.308Z,28.31
2016-07-23T06:16:01.029Z,28.31
2016-07-23T06:16:59.616Z,28.33
2016-07-23T06:18:02.142Z,28.3
2016-07-23T06:19:01.049Z,28.31
2016-07-23T06:20:00.348Z,28.31
2016-07-23T06:21:00.354Z,28.33
2016-07-23T06:22:01.073Z,28.3
2016-07-23T06:23:00.372Z,28.44
2016-07-23T06:24:00.384Z,28.3
2016-07-23T06:25:00.388Z,28.34
2016-07-23T06:26:00.399Z,28.37
2016-07-23T06:27:02.134Z,28.54
2016-07-23T06:28:01.126Z,28.46
2016-07-23T06:29:01.540Z,28.44
2016-07-23T06:30:00.430Z,28.51
2016-07-23T06:31:00.440Z,28.39
2016-07-23T06:31:59.744Z,28.46
2016-07-23T06:33:01.163Z,28.43
2016-07-23T06:34:01.171Z,28.48
2016-07-23T06:35:01.179Z,28.51
2016-07-23T06:36:01.189Z,28.49
2016-07-23T06:36:59.777Z,28.56
2016-07-23T06:38:02.123Z,28.58
2016-07-23T06:39:01.215Z,28.52
2016-07-23T06:40:00.904Z,28.54
2016-07-23T06:41:01.227Z,28.58
2016-07-23T06:42:00.530Z,28.46
2016-07-23T06:42:59.828Z,28.58
2016-07-23T06:44:00.541Z,28.55
2016-07-23T06:45:00.552Z,28.58
2016-07-23T06:46:01.267Z,28.61
2016-07-23T06:47:01.325Z,28.7
2016-07-23T06:48:00.575Z,28.64
2016-07-23T06:49:02.111Z,28.62
2016-07-23T06:50:00.591Z,28.62
2016-07-23T06:51:01.608Z,28.67
2016-07-23T06:51:59.902Z,28.64
2016-07-23T06:53:01.333Z,28.66
2016-07-23T06:54:01.341Z,28.68
2016-07-23T06:55:01.343Z,28.62
2016-07-23T06:56:00.646Z,28.68
2016-07-23T06:57:01.356Z,28.66
2016-07-23T06:58:00.052Z,28.62
2016-07-23T06:59:01.373Z,28.62
2016-07-23T07:00:01.827Z,28.68
2016-07-23T07:01:00.683Z,28.64
2016-07-23T07:02:01.344Z,28.61
2016-07-23T07:03:00.698Z,28.66
2016-07-23T07:04:00.711Z,28.76
2016-07-23T07:05:01.426Z,28.76
2016-07-23T07:06:00.726Z,28.78
2016-07-23T07:07:00.734Z,28.74
2016-07-23T07:08:01.449Z,28.71
2016-07-23T07:09:00.049Z,28.71
2016-07-23T07:10:01.466Z,28.68
2016-07-23T07:11:02.126Z,28.62
2016-07-23T07:12:00.777Z,28.59
2016-07-23T07:13:00.784Z,28.67
2016-07-23T07:14:00.084Z,28.67
2016-07-23T07:15:00.803Z,28.64
2016-07-23T07:16:00.102Z,28.66
2016-07-23T07:17:00.820Z,28.7
2016-07-23T07:18:01.533Z,28.71
2016-07-23T07:19:01.546Z,28.68
2016-07-23T07:20:00.842Z,28.64
2016-07-23T07:21:01.562Z,28.62
2016-07-23T07:22:01.415Z,28.56
2016-07-23T07:23:00.872Z,28.61
2016-07-23T07:24:01.588Z,28.61
2016-07-23T07:25:00.179Z,28.61
2016-07-23T07:26:00.896Z,28.55
2016-07-23T07:27:00.902Z,28.56
2016-07-23T07:28:00.914Z,28.59
2016-07-23T07:29:00.213Z,28.59
2016-07-23T07:30:00.932Z,28.62
2016-07-23T07:31:00.230Z,28.7
2016-07-23T07:32:00.241Z,28.62
2016-07-23T07:33:01.353Z,28.64
2016-07-23T07:34:01.692Z,28.61
2016-07-23T07:35:00.263Z,28.59
2016-07-23T07:36:00.980Z,28.64
2016-07-23T07:37:00.280Z,28.61
2016-07-23T07:38:00.996Z,28.68
2016-07-23T07:39:00.296Z,28.67
2016-07-23T07:40:01.009Z,28.61
2016-07-23T07:41:01.724Z,28.61
2016-07-23T07:42:01.028Z,28.68
2016-07-23T07:43:01.738Z,28.7
2016-07-23T07:44:01.135Z,28.62
2016-07-23T07:45:01.101Z,28.64
2016-07-23T07:46:02.954Z,28.64
2016-07-23T07:47:00.410Z,28.67
2016-07-23T07:48:01.074Z,28.64
2016-07-23T07:49:01.076Z,28.62
2016-07-23T07:50:00.381Z,28.64
2016-07-23T07:51:01.809Z,28.67
2016-07-23T07:52:01.103Z,28.62
2016-07-23T07:53:01.112Z,28.7
2016-07-23T07:54:01.118Z,28.62
2016-07-23T07:55:01.842Z,28.62
2016-07-23T07:56:01.133Z,28.68
2016-07-23T07:57:01.143Z,28.61
2016-07-23T07:58:01.156Z,28.67
2016-07-23T07:59:01.303Z,28.58
2016-07-23T08:00:00.455Z,28.58
2016-07-23T08:01:01.176Z,28.55
2016-07-23T08:02:00.474Z,28.66
2016-07-23T08:03:01.187Z,28.66
2016-07-23T08:04:01.193Z,28.56
2016-07-23T08:05:01.203Z,28.64
2016-07-23T08:06:01.210Z,28.61
2016-07-23T08:07:00.516Z,28.58
2016-07-23T08:08:01.224Z,28.58
2016-07-23T08:09:01.238Z,28.59
2016-07-23T08:10:01.238Z,28.54
2016-07-23T08:11:01.954Z,28.56
2016-07-23T08:12:01.964Z,28.59
2016-07-23T08:13:00.555Z,28.51
2016-07-23T08:14:01.981Z,28.55
2016-07-23T08:15:01.992Z,28.55
2016-07-23T08:16:01.287Z,28.54
2016-07-23T08:17:02.001Z,28.64
2016-07-23T08:18:01.312Z,28.59
2016-07-23T08:19:02.914Z,28.52
2016-07-23T08:20:02.029Z,28.61
2016-07-23T08:21:01.327Z,28.55
2016-07-23T08:22:01.336Z,28.7
2016-07-23T08:23:01.358Z,28.58
2016-07-23T08:24:01.355Z,28.61
2016-07-23T08:25:01.364Z,28.68
2016-07-23T08:26:02.077Z,28.64
2016-07-23T08:27:02.081Z,28.62
2016-07-23T08:28:01.443Z,28.7
2016-07-23T08:29:01.393Z,28.66
2016-07-23T08:30:03.214Z,28.64
2016-07-23T08:31:01.413Z,28.64
2016-07-23T08:32:01.425Z,28.71
2016-07-23T08:33:01.426Z,28.68
2016-07-23T08:34:01.435Z,28.67
2016-07-23T08:35:01.470Z,28.64
2016-07-23T08:36:01.452Z,28.66
2016-07-23T08:37:02.165Z,28.68
2016-07-23T08:38:02.175Z,28.64
2016-07-23T08:39:01.221Z,28.68
2016-07-23T08:40:01.482Z,28.67
2016-07-23T08:41:01.492Z,28.68
2016-07-23T08:42:02.204Z,28.68
2016-07-23T08:43:01.505Z,28.59
2016-07-23T08:44:01.515Z,28.68
2016-07-23T08:45:01.521Z,28.66
2016-07-23T08:46:01.529Z,28.67
2016-07-23T08:47:01.547Z,28.67
2016-07-23T08:48:01.547Z,28.66
2016-07-23T08:49:01.553Z,28.7
2016-07-23T08:50:03.243Z,28.68
2016-07-23T08:51:01.567Z,28.7
2016-07-23T08:52:03.243Z,28.71
2016-07-23T08:53:01.586Z,28.67
2016-07-23T08:54:02.299Z,28.7
2016-07-23T08:55:00.898Z,28.66
2016-07-23T08:56:02.315Z,28.74
2016-07-23T08:57:02.321Z,28.68
2016-07-23T08:58:01.624Z,28.7
2016-07-23T08:59:02.338Z,28.7
2016-07-23T09:00:02.347Z,28.76
2016-07-23T09:01:01.488Z,28.73
2016-07-23T09:02:01.663Z,28.7
2016-07-23T09:03:03.248Z,28.76
2016-07-23T09:04:02.374Z,28.74
2016-07-23T09:05:01.675Z,28.7
2016-07-23T09:06:02.388Z,28.7
2016-07-23T09:07:00.987Z,28.68
2016-07-23T09:08:01.699Z,28.64
2016-07-23T09:09:01.016Z,28.64
2016-07-23T09:10:02.422Z,28.61
2016-07-23T09:11:02.430Z,28.64
2016-07-23T09:12:01.731Z,28.64
2016-07-23T09:13:01.740Z,28.67
2016-07-23T09:14:03.475Z,27.57
2016-07-23T09:15:01.857Z,27.24
2016-07-23T09:16:01.764Z,27.31
2016-07-23T09:17:02.477Z,26.97
2016-07-23T09:18:02.487Z,27.06
2016-07-23T09:19:01.779Z,26.84
2016-07-23T09:20:01.787Z,26.89
2016-07-23T09:21:01.084Z,26.72
2016-07-23T09:22:01.799Z,26.7
2016-07-23T09:23:02.512Z,26.17
2016-07-23T09:24:01.806Z,25.95
2016-07-23T09:25:03.582Z,25.65
2016-07-23T09:26:02.524Z,25.83
2016-07-23T09:27:01.821Z,25.62
2016-07-23T09:28:02.530Z,25.67
2016-07-23T09:29:02.535Z,25.85
2016-07-23T09:30:02.537Z,25.95
2016-07-23T09:31:01.129Z,26.13
2016-07-23T09:32:02.546Z,25.9
2016-07-23T09:33:01.841Z,25.7
2016-07-23T09:34:01.849Z,25.58
2016-07-23T09:35:02.559Z,25.35
2016-07-23T09:36:01.144Z,25.55
2016-07-23T09:37:02.559Z,25.52
2016-07-23T09:38:02.565Z,25.6
2016-07-23T09:39:01.861Z,26.13
2016-07-23T09:40:01.863Z,26.15
2016-07-23T09:41:01.167Z,26.28
2016-07-23T09:42:01.875Z,26.37
2016-07-23T09:43:01.178Z,26.54
2016-07-23T09:44:02.587Z,26.75
2016-07-23T09:45:01.977Z,26.77
2016-07-23T09:46:02.598Z,26.55
2016-07-23T09:47:01.896Z,26.13
2016-07-23T09:48:01.187Z,26.12
2016-07-23T09:49:01.906Z,26.3
2016-07-23T09:50:01.907Z,26.51
2016-07-23T09:51:01.207Z,26.81
2016-07-23T09:52:01.211Z,26.7
2016-07-23T09:53:02.636Z,26.73
2016-07-23T09:54:01.220Z,26.8
2016-07-23T09:55:02.693Z,26.54
2016-07-23T09:56:01.948Z,26.52
2016-07-23T09:57:02.648Z,26.63
2016-07-23T09:58:03.706Z,26.37
2016-07-23T09:59:01.952Z,26.54
2016-07-23T10:00:01.251Z,26.52
2016-07-23T10:01:02.720Z,26.2
2016-07-23T10:02:02.683Z,26.21
2016-07-23T10:03:02.677Z,26.28
2016-07-23T10:04:02.686Z,26.72
2016-07-23T10:05:02.685Z,26.87
2016-07-23T10:06:02.690Z,27.02
2016-07-23T10:07:02.502Z,26.47
2016-07-23T10:08:02.497Z,26.75
2016-07-23T10:09:03.816Z,26.77
2016-07-23T10:10:02.711Z,26.37
2016-07-23T10:11:02.715Z,26.3
2016-07-23T10:12:02.719Z,26.17
2016-07-23T10:13:02.016Z,26.2
2016-07-23T10:14:02.022Z,26.7
2016-07-23T10:15:02.732Z,26.43
2016-07-23T10:16:02.736Z,26.28
2016-07-23T10:17:02.741Z,26.48
2016-07-23T10:18:02.746Z,26.54
2016-07-23T10:19:01.336Z,26.85
2016-07-23T10:20:02.046Z,27
2016-07-23T10:21:02.056Z,27.07
2016-07-23T10:22:02.058Z,27.24
2016-07-23T10:23:02.264Z,26.95
2016-07-23T10:24:01.365Z,26.92
2016-07-23T10:25:02.078Z,26.73
2016-07-23T10:26:02.790Z,26.85
2016-07-23T10:27:02.086Z,26.88
2016-07-23T10:28:02.853Z,26.77
2016-07-23T10:29:02.096Z,26.89
2016-07-23T10:30:02.103Z,26.97
2016-07-23T10:31:02.109Z,27.28
2016-07-23T10:32:02.820Z,27.21
2016-07-23T10:33:02.120Z,26.72
2016-07-23T10:34:02.124Z,26.72
2016-07-23T10:35:02.130Z,26.65
2016-07-23T10:36:02.132Z,26.84
2016-07-23T10:37:01.434Z,27.12
2016-07-23T10:38:02.143Z,27.1
2016-07-23T10:39:02.165Z,26.92
2016-07-23T10:40:01.949Z,26.92
2016-07-23T10:41:02.868Z,26.84
2016-07-23T10:42:03.747Z,26.99
2016-07-23T10:43:02.878Z,27.21
2016-07-23T10:44:02.887Z,27.03
2016-07-23T10:45:02.898Z,26.94
2016-07-23T10:46:02.895Z,27.04
2016-07-23T10:47:02.202Z,26.72
2016-07-23T10:48:02.906Z,26.18
2016-07-23T10:49:01.493Z,26.39
2016-07-23T10:50:02.209Z,26.26
2016-07-23T10:51:02.212Z,26.25
2016-07-23T10:52:02.972Z,26.65
2016-07-23T10:53:01.522Z,26.75
2016-07-23T10:54:01.516Z,26.82
2016-07-23T10:55:02.940Z,26.84
2016-07-23T10:56:02.941Z,26.37
2016-07-23T10:57:02.236Z,26.54
2016-07-23T10:58:02.949Z,26.69
2016-07-23T10:59:01.539Z,26.69
2016-07-23T11:00:02.247Z,26.82
2016-07-23T11:01:02.965Z,27.07
2016-07-23T11:02:02.409Z,27.12
2016-07-23T11:03:02.263Z,27.31
2016-07-23T11:04:02.269Z,27.32
2016-07-23T11:05:02.278Z,27.18
2016-07-23T11:06:02.986Z,27.25
2016-07-23T11:07:02.287Z,27.41
2016-07-23T11:08:02.294Z,27.39
2016-07-23T11:09:02.299Z,27.31
2016-07-23T11:10:01.614Z,27.31
2016-07-23T11:11:02.309Z,27.19
2016-07-23T11:12:01.605Z,27.19
2016-07-23T11:13:02.063Z,27.4
2016-07-23T11:14:01.617Z,27.29
2016-07-23T11:15:02.328Z,27.21
2016-07-23T11:16:03.043Z,27.1
2016-07-23T11:17:02.344Z,27.28
2016-07-23T11:18:02.347Z,27.5
2016-07-23T11:19:02.349Z,27.44
2016-07-23T11:20:02.371Z,27.57
2016-07-23T11:21:02.364Z,27.75
2016-07-23T11:22:02.371Z,27.6
2016-07-23T11:23:02.373Z,27.43
2016-07-23T11:24:03.288Z,27.37
2016-07-23T11:25:03.093Z,27.31
2016-07-23T11:26:02.395Z,27.39
2016-07-23T11:27:02.398Z,27.09
2016-07-23T11:28:01.698Z,27.43
2016-07-23T11:29:02.411Z,27.41
2016-07-23T11:30:02.416Z,27.14
2016-07-23T11:31:02.424Z,27.37
2016-07-23T11:32:02.428Z,27.55
2016-07-23T11:33:03.140Z,27.4
2016-07-23T11:34:03.148Z,27.47
2016-07-23T11:35:02.896Z,27.66
2016-07-23T11:36:03.156Z,27.65
2016-07-23T11:37:02.459Z,27.65
2016-07-23T11:38:02.467Z,27.69
2016-07-23T11:39:02.469Z,27.5
2016-07-23T11:40:02.475Z,27.39
2016-07-23T11:41:03.190Z,27.39
2016-07-23T11:42:02.492Z,27.29
2016-07-23T11:43:02.489Z,27.25
2016-07-23T11:44:03.202Z,27.13
2016-07-23T11:45:03.210Z,27.19
2016-07-23T11:46:02.904Z,27.43
2016-07-23T11:47:03.221Z,27.25
2016-07-23T11:48:02.521Z,27.22
2016-07-23T11:49:01.817Z,27.27
2016-07-23T11:50:03.239Z,27.31
2016-07-23T11:51:02.535Z,27.43
2016-07-23T11:52:03.252Z,27.55
2016-07-23T11:53:02.547Z,27.51
2016-07-23T11:54:01.849Z,27.5
2016-07-23T11:55:02.560Z,27.5
2016-07-23T11:56:02.579Z,27.46
2016-07-23T11:57:02.985Z,27.5
2016-07-23T11:58:01.871Z,27.54
2016-07-23T11:59:02.584Z,27.59
2016-07-23T12:00:02.591Z,27.55
2016-07-23T12:01:03.305Z,27.32
2016-07-23T12:02:02.600Z,27.57
2016-07-23T12:03:01.901Z,27.51
2016-07-23T12:04:02.616Z,27.59
2016-07-23T12:05:02.619Z,27.65
2016-07-23T12:06:02.628Z,27.74
2016-07-23T12:07:01.926Z,27.54
2016-07-23T12:08:03.149Z,27.7
2016-07-23T12:09:01.937Z,27.85
2016-07-23T12:10:02.708Z,27.9
2016-07-23T12:11:02.658Z,27.65
2016-07-23T12:12:02.664Z,27.75
2016-07-23T12:13:03.378Z,27.6
2016-07-23T12:14:02.680Z,27.4
2016-07-23T12:15:03.391Z,27.17
2016-07-23T12:16:03.396Z,27.14
2016-07-23T12:17:02.695Z,27.14
2016-07-23T12:18:02.700Z,27.44
2016-07-23T12:19:03.553Z,27.74
2016-07-23T12:20:02.711Z,27.54
2016-07-23T12:21:03.427Z,27.66
2016-07-23T12:22:02.724Z,27.55
2016-07-23T12:23:02.729Z,27.55
2016-07-23T12:24:02.734Z,27.54
2016-07-23T12:25:03.450Z,27.32
2016-07-23T12:26:02.746Z,27.31
2016-07-23T12:27:02.766Z,27.5
2016-07-23T12:28:02.052Z,27.31
2016-07-23T12:29:02.764Z,27.39
2016-07-23T12:30:03.572Z,27.31
2016-07-23T12:31:03.482Z,27.54
2016-07-23T12:32:03.492Z,27.5
2016-07-23T12:33:03.494Z,27.72
2016-07-23T12:34:03.504Z,27.69
2016-07-23T12:35:03.507Z,27.77
2016-07-23T12:36:03.513Z,27.6
2016-07-23T12:37:03.519Z,27.59
2016-07-23T12:38:02.816Z,27.37
2016-07-23T12:39:02.826Z,27.34
2016-07-23T12:40:02.829Z,27.25
2016-07-23T12:41:03.691Z,27.27
2016-07-23T12:42:02.843Z,27.29
2016-07-23T12:43:02.846Z,27.39
2016-07-23T12:44:02.853Z,27.47
2016-07-23T12:45:02.153Z,27.55
2016-07-23T12:46:03.574Z,27.65
2016-07-23T12:47:03.580Z,27.63
2016-07-23T12:48:03.588Z,27.72
2016-07-23T12:49:02.885Z,27.82
2016-07-23T12:50:02.898Z,28.09
2016-07-23T12:51:03.604Z,28.14
2016-07-23T12:52:03.699Z,28.02
2016-07-23T12:53:02.207Z,28.17
2016-07-23T12:54:02.920Z,27.84
2016-07-23T12:55:02.220Z,27.75
2016-07-23T12:56:02.935Z,27.81
2016-07-23T12:57:02.939Z,28.06